createdAt,value
2018-03-07T00:00:13.733Z,44.53
2018-03-07T00:02:39.770Z,45.47
2018-03-07T00:05:05.865Z,44.87
2018-03-07T00:07:31.885Z,44.53
2018-03-07T00:09:58.087Z,45.00
2018-03-07T00:12:24.191Z,46.20
2018-03-07T00:14:50.329Z,41.20
2018-03-07T00:17:16.400Z,42.27
2018-03-07T00:19:42.612Z,43.90
2018-03-07T00:22:08.658Z,48.07
2018-03-07T00:24:34.761Z,47.50
2018-03-07T00:27:00.869Z,45.77
2018-03-07T00:29:26.902Z,37.20
2018-03-07T00:31:53.048Z,41.43
2018-03-07T00:34:19.103Z,40.77
2018-03-07T00:36:45.248Z,42.57
2018-03-07T00:39:11.293Z,43.80
2018-03-07T00:41:37.340Z,41.20
2018-03-07T00:44:03.556Z,41.03
2018-03-07T00:46:29.592Z,42.50
2018-03-07T00:48:56.033Z,43.90
2018-03-07T00:51:22.040Z,43.73
2018-03-07T00:53:48.103Z,41.87
2018-03-07T00:56:14.167Z,42.73
2018-03-07T00:58:40.274Z,40.73
2018-03-07T01:01:06.500Z,41.60
2018-03-07T01:03:32.710Z,33.93
2018-03-07T01:05:58.765Z,42.77
2018-03-07T01:08:24.847Z,40.30
2018-03-07T01:10:50.915Z,36.80
2018-03-07T01:13:17.035Z,36.37
2018-03-07T01:15:43.085Z,39.67
2018-03-07T01:18:09.174Z,39.73
2018-03-07T01:20:35.411Z,38.83
2018-03-07T01:23:01.479Z,40.30
2018-03-07T01:25:27.725Z,38.77
2018-03-07T01:27:53.796Z,38.90
2018-03-07T01:30:19.866Z,38.87
2018-03-07T01:32:45.951Z,36.77
2018-03-07T01:35:12.034Z,31.33
2018-03-07T01:37:38.096Z,37.00
2018-03-07T01:40:04.177Z,38.20
2018-03-07T01:42:30.249Z,35.60
2018-03-07T01:44:56.312Z,37.80
2018-03-07T01:47:22.546Z,37.63
2018-03-07T01:49:48.616Z,35.27
2018-03-07T01:52:14.656Z,38.17
2018-03-07T01:54:40.702Z,38.03
2018-03-07T01:57:06.779Z,36.97
2018-03-07T01:59:33.047Z,39.27
2018-03-07T02:01:59.107Z,36.13
2018-03-07T02:04:25.156Z,36.07
2018-03-07T02:06:51.186Z,34.20
2018-03-07T02:09:17.282Z,36.23
2018-03-07T02:11:43.335Z,36.10
2018-03-07T02:14:09.398Z,37.57
2018-03-07T02:16:35.486Z,34.53
2018-03-07T02:19:01.533Z,37.13
2018-03-07T02:21:27.671Z,36.17
2018-03-07T02:23:53.874Z,36.87
2018-03-07T02:26:19.979Z,36.60
2018-03-07T02:28:46.026Z,35.50
2018-03-07T02:31:12.210Z,34.77
2018-03-07T02:33:38.290Z,37.43
2018-03-07T02:36:04.323Z,36.23
2018-03-07T02:38:30.368Z,34.30
2018-03-07T02:40:56.462Z,36.07
2018-03-07T02:43:22.581Z,35.67
2018-03-07T02:45:48.611Z,34.73
2018-03-07T02:48:14.633Z,34.50
2018-03-07T02:50:40.668Z,34.93
2018-03-07T02:53:06.700Z,34.27
2018-03-07T02:55:32.830Z,33.07
2018-03-07T02:57:58.911Z,33.97
2018-03-07T03:00:25.037Z,34.87
2018-03-07T03:02:51.087Z,33.70
2018-03-07T03:05:17.155Z,33.13
2018-03-07T03:07:43.237Z,31.37
2018-03-07T03:10:09.265Z,28.20
2018-03-07T03:12:35.429Z,32.13
2018-03-07T03:15:01.495Z,33.27
2018-03-07T03:17:27.817Z,32.10
2018-03-07T03:19:53.912Z,30.60
2018-03-07T03:22:20.001Z,34.80
2018-03-07T03:24:46.063Z,30.77
2018-03-07T03:27:12.103Z,28.17
2018-03-07T03:29:38.618Z,26.97
2018-03-07T03:32:04.701Z,31.50
2018-03-07T03:34:30.838Z,35.50
2018-03-07T03:36:56.919Z,33.97
2018-03-07T03:39:22.940Z,34.60
2018-03-07T03:41:49.227Z,34.27
2018-03-07T03:44:15.289Z,25.73
2018-03-07T03:46:41.602Z,30.27
2018-03-07T03:49:07.637Z,29.53
2018-03-07T03:51:33.800Z,37.70
2018-03-07T03:53:59.852Z,37.73
2018-03-07T03:56:26.542Z,35.80
2018-03-07T03:58:52.625Z,35.77
2018-03-07T04:01:18.690Z,38.33
2018-03-07T04:03:44.732Z,23.70
2018-03-07T04:06:11.008Z,31.97
2018-03-07T04:08:37.075Z,33.57
2018-03-07T04:11:03.136Z,32.57
2018-03-07T04:13:29.176Z,28.90
2018-03-07T04:15:55.249Z,27.93
2018-03-07T04:18:21.295Z,28.47
2018-03-07T04:20:47.354Z,32.70
2018-03-07T04:23:13.399Z,30.33
2018-03-07T04:25:39.770Z,30.27
2018-03-07T04:28:05.824Z,36.43
2018-03-07T04:30:31.858Z,34.80
2018-03-07T04:32:58.106Z,36.13
2018-03-07T04:35:24.127Z,24.77
2018-03-07T04:37:50.357Z,28.07
2018-03-07T04:40:16.438Z,30.07
2018-03-07T04:42:42.514Z,26.23
2018-03-07T04:45:08.565Z,30.00
2018-03-07T04:47:34.598Z,32.03
2018-03-07T04:50:00.669Z,34.40
2018-03-07T04:52:26.715Z,33.60
2018-03-07T04:54:52.761Z,33.00
2018-03-07T04:57:18.771Z,34.23
2018-03-07T04:59:45.104Z,33.23
2018-03-07T05:02:11.174Z,34.80
2018-03-07T05:04:37.194Z,25.43
2018-03-07T05:07:03.393Z,25.47
2018-03-07T05:09:29.571Z,32.47
2018-03-07T05:11:55.650Z,31.50
2018-03-07T05:14:21.724Z,34.07
2018-03-07T05:16:47.833Z,32.97
2018-03-07T05:19:13.936Z,33.77
2018-03-07T05:21:39.990Z,29.43
2018-03-07T05:24:06.030Z,32.60
2018-03-07T05:26:32.104Z,29.07
2018-03-07T05:28:58.220Z,32.40
2018-03-07T05:31:24.271Z,32.30
2018-03-07T05:33:50.480Z,30.73
2018-03-07T05:36:16.581Z,33.07
2018-03-07T05:38:42.595Z,38.50
2018-03-07T05:41:08.817Z,35.40
2018-03-07T05:43:34.849Z,32.37
2018-03-07T05:46:01.281Z,35.10
2018-03-07T05:48:27.500Z,35.10
2018-03-07T05:50:53.608Z,34.13
2018-03-07T05:53:19.998Z,40.57
2018-03-07T05:55:46.085Z,41.23
2018-03-07T05:58:12.195Z,41.63
2018-03-07T06:00:39.208Z,39.03
2018-03-07T06:03:05.325Z,44.67
2018-03-07T06:05:31.485Z,43.03
2018-03-07T06:07:58.058Z,40.33
2018-03-07T06:10:24.245Z,42.30
2018-03-07T06:12:50.391Z,40.77
2018-03-07T06:15:16.482Z,40.53
2018-03-07T06:17:42.547Z,23.07
2018-03-07T06:20:08.638Z,39.73
2018-03-07T06:22:34.738Z,40.17
2018-03-07T06:25:01.437Z,40.40
2018-03-07T06:27:27.515Z,44.17
2018-03-07T06:29:54.168Z,38.20
2018-03-07T06:32:20.764Z,36.23
2018-03-07T06:34:46.792Z,30.77
2018-03-07T06:37:12.830Z,38.70
2018-03-07T06:39:39.067Z,29.77
2018-03-07T06:42:05.134Z,36.47
2018-03-07T06:51:15.314Z,33.13
2018-03-07T06:53:41.538Z,34.27
2018-03-07T06:56:07.601Z,29.10
2018-03-07T06:58:33.960Z,34.00
2018-03-07T07:01:00.063Z,30.30
2018-03-07T07:03:26.090Z,25.40
2018-03-07T07:05:52.180Z,28.47
2018-03-07T07:08:18.275Z,29.70
2018-03-07T07:10:44.552Z,29.77
2018-03-07T07:13:10.629Z,34.00
2018-03-07T07:15:36.692Z,32.23
2018-03-07T07:18:03.096Z,35.17
2018-03-07T07:20:29.123Z,33.13
2018-03-07T07:22:55.226Z,25.43
2018-03-07T07:25:21.314Z,37.33
2018-03-07T07:27:47.387Z,29.97
2018-03-07T07:30:13.423Z,33.27
2018-03-07T07:32:39.492Z,36.60
2018-03-07T07:35:05.615Z,33.87
2018-03-07T07:37:31.830Z,36.63
2018-03-07T07:39:57.804Z,28.93
2018-03-07T07:42:23.914Z,29.37
2018-03-07T07:44:50.012Z,32.93
2018-03-07T07:47:16.122Z,35.67
2018-03-07T07:49:42.184Z,33.13
2018-03-07T07:52:08.267Z,31.00
2018-03-07T07:54:34.415Z,26.83
2018-03-07T07:57:00.508Z,24.37
2018-03-07T07:59:26.596Z,26.93
2018-03-07T08:01:52.884Z,27.07
2018-03-07T08:04:19.031Z,28.57
2018-03-07T08:06:45.092Z,27.80
2018-03-07T08:09:11.115Z,31.13
2018-03-07T08:11:37.207Z,31.33
2018-03-07T08:14:03.640Z,29.90
2018-03-07T08:16:29.695Z,26.37
2018-03-07T08:18:55.762Z,30.57
2018-03-07T08:21:21.872Z,29.40
2018-03-07T08:23:47.944Z,26.10
2018-03-07T08:26:14.141Z,22.40
2018-03-07T08:28:41.161Z,26.17
2018-03-07T08:31:07.198Z,28.30
2018-03-07T08:33:33.265Z,28.17
2018-03-07T08:35:59.329Z,31.73
2018-03-07T08:38:25.572Z,25.80
2018-03-07T08:40:51.646Z,28.60
2018-03-07T08:43:18.027Z,24.73
2018-03-07T08:45:44.085Z,26.87
2018-03-07T08:48:10.126Z,23.27
2018-03-07T08:50:36.547Z,23.10
2018-03-07T08:53:02.562Z,33.67
2018-03-07T08:55:28.617Z,34.67
2018-03-07T08:57:54.924Z,25.30
2018-03-07T09:00:20.983Z,28.17
2018-03-07T09:02:47.058Z,28.07
2018-03-07T09:05:13.136Z,28.87
2018-03-07T09:07:39.220Z,31.80
2018-03-07T09:10:05.267Z,25.30
2018-03-07T09:12:31.303Z,24.63
2018-03-07T09:14:57.389Z,30.10
2018-03-07T09:17:23.414Z,24.97
2018-03-07T09:19:49.609Z,24.10
2018-03-07T09:22:15.679Z,33.17
2018-03-07T09:24:41.768Z,19.07
2018-03-07T09:27:07.793Z,21.13
2018-03-07T09:29:33.854Z,27.73
2018-03-07T09:31:59.967Z,22.47
2018-03-07T09:34:26.007Z,26.00
2018-03-07T09:36:52.057Z,28.80
2018-03-07T09:39:18.242Z,37.90
2018-03-07T09:41:44.323Z,37.73
2018-03-07T09:44:10.363Z,33.07
2018-03-07T09:46:36.463Z,34.10
2018-03-07T09:49:02.532Z,26.60
2018-03-07T09:51:28.563Z,37.50
2018-03-07T09:53:54.638Z,36.10
2018-03-07T09:56:20.802Z,32.73
2018-03-07T09:58:46.834Z,33.10
2018-03-07T10:01:13.092Z,42.20
2018-03-07T10:03:39.164Z,41.27
2018-03-07T10:06:05.277Z,37.00
2018-03-07T10:08:31.383Z,36.93
2018-03-07T10:10:57.721Z,30.83
2018-03-07T10:13:23.841Z,29.30
2018-03-07T10:15:49.884Z,26.70
2018-03-07T10:18:16.112Z,33.00
2018-03-07T10:20:42.159Z,31.63
2018-03-07T10:23:08.303Z,26.03
2018-03-07T10:25:34.544Z,33.30
2018-03-07T10:28:00.623Z,36.23
2018-03-07T10:30:26.692Z,33.37
2018-03-07T10:32:53.032Z,21.03
2018-03-07T10:35:19.108Z,33.10
2018-03-07T10:37:45.155Z,41.93
2018-03-07T10:40:11.260Z,43.73
2018-03-07T10:42:37.316Z,40.67
2018-03-07T10:45:03.596Z,38.30
2018-03-07T10:47:29.636Z,43.17
2018-03-07T10:49:55.896Z,37.60
2018-03-07T10:52:21.953Z,43.40
2018-03-07T10:54:48.100Z,34.50
2018-03-07T10:57:14.419Z,42.57
2018-03-07T10:59:40.479Z,48.27
2018-03-07T11:02:06.575Z,51.60
2018-03-07T11:04:47.536Z,46.20
2018-03-07T11:07:13.808Z,48.87
2018-03-07T11:09:39.857Z,43.43
2018-03-07T11:12:05.898Z,44.87
2018-03-07T11:14:31.942Z,46.43
2018-03-07T11:16:57.983Z,52.10
2018-03-07T11:19:24.074Z,54.63
2018-03-07T11:21:50.164Z,57.13
2018-03-07T11:24:16.208Z,48.00
2018-03-07T11:26:42.318Z,44.67
2018-03-07T11:29:08.366Z,34.60
2018-03-07T11:31:34.420Z,44.37
2018-03-07T11:34:00.454Z,50.10
2018-03-07T11:36:26.514Z,36.67
2018-03-07T11:38:52.564Z,46.07
2018-03-07T11:41:18.613Z,50.87
2018-03-07T11:43:44.702Z,43.60
2018-03-07T11:46:10.812Z,45.10
2018-03-07T11:48:36.992Z,43.20
2018-03-07T11:51:03.040Z,44.57
2018-03-07T11:53:29.124Z,49.23
2018-03-07T11:55:55.557Z,54.00
2018-03-07T11:58:21.615Z,57.27
2018-03-07T12:00:47.657Z,55.97
2018-03-07T12:03:13.740Z,58.17
2018-03-07T12:05:39.819Z,60.40
2018-03-07T12:08:05.901Z,51.70
2018-03-07T12:10:32.014Z,68.53
2018-03-07T12:12:58.082Z,57.90
2018-03-07T12:15:24.194Z,53.03
2018-03-07T12:17:50.252Z,55.97
2018-03-07T12:20:16.325Z,56.13
2018-03-07T12:22:42.464Z,53.67
2018-03-07T12:25:08.561Z,39.57
2018-03-07T12:27:34.632Z,42.77
2018-03-07T12:30:00.957Z,49.97
2018-03-07T12:32:26.996Z,42.57
2018-03-07T12:34:53.125Z,45.43
2018-03-07T12:37:19.170Z,58.47
2018-03-07T12:39:45.225Z,47.80
2018-03-07T12:42:11.310Z,37.57
2018-03-07T12:44:37.351Z,50.53
2018-03-07T12:47:03.474Z,48.10
2018-03-07T12:49:29.599Z,43.87
2018-03-07T12:51:55.684Z,49.87
2018-03-07T12:54:21.766Z,42.87
2018-03-07T12:56:47.834Z,51.97
2018-03-07T12:59:13.933Z,63.43
2018-03-07T13:01:40.012Z,53.70
2018-03-07T13:04:06.083Z,57.27
2018-03-07T13:06:32.370Z,45.63
2018-03-07T13:08:58.680Z,53.13
2018-03-07T13:11:24.722Z,60.00
2018-03-07T13:13:50.778Z,59.60
2018-03-07T13:16:17.142Z,52.43
2018-03-07T13:18:43.185Z,49.60
2018-03-07T13:21:09.324Z,64.00
2018-03-07T13:23:35.347Z,56.33
2018-03-07T13:26:01.436Z,47.30
2018-03-07T13:28:27.553Z,47.30
2018-03-07T13:30:53.656Z,44.67
2018-03-07T13:33:19.724Z,50.53
2018-03-07T13:35:45.755Z,55.37
2018-03-07T13:38:11.885Z,40.93
2018-03-07T13:40:37.957Z,45.67
2018-03-07T13:43:04.697Z,56.63
2018-03-07T13:45:30.742Z,49.83
2018-03-07T13:47:56.765Z,51.03
2018-03-07T13:50:22.876Z,48.40
2018-03-07T13:53:03.804Z,54.93
2018-03-07T13:55:29.871Z,47.43
2018-03-07T13:57:55.971Z,54.77
2018-03-07T14:00:22.049Z,47.33
2018-03-07T14:02:48.381Z,48.40
2018-03-07T14:05:14.530Z,50.33
2018-03-07T14:07:41.322Z,43.60
2018-03-07T14:10:07.370Z,51.53
2018-03-07T14:12:33.633Z,51.27
2018-03-07T14:14:59.704Z,50.77
2018-03-07T14:17:25.802Z,59.83
2018-03-07T14:19:51.829Z,53.47
2018-03-07T14:22:17.886Z,45.67
2018-03-07T14:24:44.174Z,47.37
2018-03-07T14:27:10.244Z,46.53
2018-03-07T14:29:36.336Z,48.77
2018-03-07T14:32:02.404Z,52.50
2018-03-07T14:34:28.503Z,40.07
2018-03-07T14:36:54.583Z,44.07
2018-03-07T14:39:20.683Z,48.07
2018-03-07T14:41:46.753Z,44.00
2018-03-07T14:44:12.798Z,37.40
2018-03-07T14:46:38.864Z,54.60
2018-03-07T14:49:05.159Z,48.50
2018-03-07T14:51:31.259Z,48.37
2018-03-07T14:53:57.325Z,47.13
2018-03-07T14:56:23.377Z,50.37
2018-03-07T14:58:49.497Z,45.60
2018-03-07T15:01:15.721Z,43.33
2018-03-07T15:03:41.819Z,56.37
2018-03-07T15:06:08.709Z,47.83
2018-03-07T15:08:34.944Z,84.60
2018-03-07T15:11:01.130Z,54.10
2018-03-07T15:13:27.176Z,46.10
2018-03-07T15:15:53.440Z,50.67
2018-03-07T15:18:19.504Z,48.13
2018-03-07T15:20:45.539Z,43.40
2018-03-07T15:23:11.695Z,51.83
2018-03-07T15:25:37.822Z,58.17
2018-03-07T15:28:03.906Z,54.10
2018-03-07T15:30:29.996Z,56.43
2018-03-07T15:32:56.088Z,48.73
2018-03-07T15:35:22.139Z,50.93
2018-03-07T15:37:48.203Z,48.93
2018-03-07T15:40:14.255Z,47.63
2018-03-07T15:42:40.315Z,52.83
2018-03-07T15:45:06.382Z,49.43
2018-03-07T15:47:32.465Z,46.40
2018-03-07T15:49:58.604Z,59.87
2018-03-07T15:52:24.630Z,50.17
2018-03-07T15:54:50.699Z,51.50
2018-03-07T15:57:16.719Z,50.83
2018-03-07T15:59:43.020Z,49.50
2018-03-07T16:02:09.214Z,46.17
2018-03-07T16:04:35.389Z,46.63
2018-03-07T16:07:01.874Z,58.37
2018-03-07T16:09:28.046Z,51.90
2018-03-07T16:11:54.135Z,51.80
2018-03-07T16:14:20.233Z,58.17
2018-03-07T16:16:46.367Z,49.47
2018-03-07T16:19:12.431Z,50.47
2018-03-07T16:21:38.529Z,48.83
2018-03-07T16:24:04.615Z,49.50
2018-03-07T16:26:31.562Z,45.67
2018-03-07T16:28:57.667Z,45.87
2018-03-07T16:31:23.800Z,53.33
2018-03-07T16:33:49.944Z,44.80
2018-03-07T16:36:16.064Z,49.67
2018-03-07T16:38:42.606Z,48.03
2018-03-07T16:41:08.688Z,52.70
2018-03-07T16:43:34.765Z,53.40
2018-03-07T16:46:00.906Z,48.60
2018-03-07T16:48:26.938Z,64.83
2018-03-07T16:50:53.348Z,55.13
2018-03-07T16:53:19.397Z,53.33
2018-03-07T16:55:45.452Z,55.03
2018-03-07T16:58:11.762Z,48.80
2018-03-07T17:00:37.878Z,52.07
2018-03-07T17:03:04.011Z,58.27
2018-03-07T17:05:30.065Z,58.43
2018-03-07T17:07:56.163Z,54.50
2018-03-07T17:10:22.228Z,60.30
2018-03-07T17:12:48.342Z,60.97
2018-03-07T17:15:14.466Z,59.90
2018-03-07T17:17:40.502Z,56.77
2018-03-07T17:20:06.589Z,58.70
2018-03-07T17:22:32.658Z,52.43
2018-03-07T17:24:58.686Z,63.03
2018-03-07T17:27:24.816Z,61.70
2018-03-07T17:29:50.890Z,61.47
2018-03-07T17:32:16.973Z,59.43
2018-03-07T17:34:43.200Z,54.87
2018-03-07T17:37:09.377Z,58.10
2018-03-07T17:39:35.451Z,59.73
2018-03-07T17:42:01.583Z,57.17
2018-03-07T17:44:27.652Z,57.87
2018-03-07T17:46:53.896Z,57.23
2018-03-07T17:49:19.948Z,59.53
2018-03-07T17:51:46.030Z,57.83
2018-03-07T17:54:12.149Z,57.80
2018-03-07T17:56:38.512Z,60.60
2018-03-07T17:59:05.132Z,60.07
2018-03-07T18:01:31.302Z,56.93
2018-03-07T18:03:57.420Z,58.97
2018-03-07T18:06:23.575Z,62.37
2018-03-07T18:08:49.658Z,60.67
2018-03-07T18:11:15.924Z,58.53
2018-03-07T18:13:42.029Z,59.20
2018-03-07T18:16:08.249Z,60.43
2018-03-07T18:18:34.394Z,60.40
2018-03-07T18:21:00.459Z,57.53
2018-03-07T18:23:42.267Z,58.83
2018-03-07T18:26:08.762Z,59.00
2018-03-07T18:28:34.903Z,59.67
2018-03-07T18:31:01.007Z,58.93
2018-03-07T18:33:27.114Z,61.70
2018-03-07T18:35:53.398Z,62.03
2018-03-07T18:38:19.518Z,61.53
2018-03-07T18:40:45.653Z,63.00
2018-03-07T18:43:11.907Z,54.97
2018-03-07T18:45:38.312Z,59.57
2018-03-07T18:48:04.522Z,54.13
2018-03-07T18:50:30.578Z,55.77
2018-03-07T18:52:56.857Z,56.07
2018-03-07T18:55:23.015Z,57.20
2018-03-07T18:57:49.196Z,52.80
2018-03-07T19:00:15.279Z,55.03
2018-03-07T19:02:41.353Z,55.23
2018-03-07T19:05:07.721Z,57.70
2018-03-07T19:07:33.800Z,54.67
2018-03-07T19:09:59.965Z,59.40
2018-03-07T19:12:26.052Z,56.30
2018-03-07T19:14:52.254Z,56.47
2018-03-07T19:17:18.425Z,56.87
2018-03-07T19:19:45.209Z,59.30
2018-03-07T19:22:11.415Z,51.37
2018-03-07T19:24:37.538Z,57.53
2018-03-07T19:27:04.016Z,55.67
2018-03-07T19:29:31.398Z,47.10
2018-03-07T19:31:57.542Z,65.10
2018-03-07T19:34:23.835Z,65.73
2018-03-07T19:36:50.584Z,66.60
2018-03-07T19:39:16.825Z,60.30
2018-03-07T19:41:42.922Z,58.07
2018-03-07T19:44:09.030Z,61.53
2018-03-07T19:46:35.427Z,61.87
2018-03-07T19:49:01.505Z,59.93
2018-03-07T19:51:27.603Z,59.87
2018-03-07T19:53:53.899Z,60.33
2018-03-07T19:56:20.059Z,59.33
2018-03-07T19:58:46.167Z,55.83
2018-03-07T20:01:12.297Z,57.93
2018-03-07T20:03:38.476Z,53.80
2018-03-07T20:06:04.584Z,56.30
2018-03-07T20:08:30.744Z,54.70
2018-03-07T20:10:57.306Z,58.07
2018-03-07T20:13:23.433Z,56.30
2018-03-07T20:15:49.602Z,56.93
2018-03-07T20:18:15.835Z,55.63
2018-03-07T20:20:41.879Z,56.17
2018-03-07T20:23:08.230Z,56.87
2018-03-07T20:25:34.462Z,54.47
2018-03-07T20:28:00.822Z,56.20
2018-03-07T20:30:26.936Z,54.03
2018-03-07T20:32:53.063Z,57.83
2018-03-07T20:35:19.475Z,57.83
2018-03-07T20:37:45.554Z,56.97
2018-03-07T20:40:11.770Z,52.77
2018-03-07T20:42:37.889Z,55.27
2018-03-07T20:45:04.032Z,58.67
2018-03-07T20:47:30.109Z,62.47
2018-03-07T20:49:56.415Z,58.60
2018-03-07T20:52:22.678Z,62.77
2018-03-07T20:54:48.791Z,61.40
2018-03-07T20:57:14.928Z,63.23
2018-03-07T20:59:41.106Z,61.80
2018-03-07T21:02:07.202Z,60.80
2018-03-07T21:04:33.248Z,63.43
2018-03-07T21:06:59.362Z,60.53
2018-03-07T21:09:26.005Z,65.13
2018-03-07T21:11:52.095Z,59.57
2018-03-07T21:14:19.213Z,51.80
2018-03-07T21:16:45.349Z,61.70
2018-03-07T21:19:11.439Z,60.50
2018-03-07T21:21:37.575Z,67.67
2018-03-07T21:24:03.605Z,62.63
2018-03-07T21:26:29.738Z,65.80
2018-03-07T21:28:56.570Z,53.90
2018-03-07T21:31:22.735Z,50.57
2018-03-07T21:33:48.863Z,53.43
2018-03-07T21:36:14.995Z,54.30
2018-03-07T21:38:41.277Z,66.20
2018-03-07T21:41:07.392Z,61.37
2018-03-07T21:43:33.655Z,61.73
2018-03-07T21:45:59.735Z,60.43
2018-03-07T21:48:26.797Z,58.80
2018-03-07T21:50:52.846Z,61.90
2018-03-07T21:53:19.377Z,57.87
2018-03-07T21:55:45.498Z,57.50
2018-03-07T21:58:11.679Z,57.57
2018-03-07T22:00:37.798Z,56.30
2018-03-07T22:03:03.872Z,58.70
2018-03-07T22:05:29.940Z,60.17
2018-03-07T22:07:56.024Z,61.13
2018-03-07T22:10:22.103Z,57.07
2018-03-07T22:12:48.167Z,58.30
2018-03-07T22:15:14.265Z,56.83
2018-03-07T22:17:40.336Z,57.73
2018-03-07T22:20:06.385Z,63.10
2018-03-07T22:22:32.426Z,61.43
2018-03-07T22:24:58.502Z,60.00
2018-03-07T22:27:24.711Z,60.33
2018-03-07T22:29:50.777Z,60.10
2018-03-07T22:32:16.883Z,60.37
2018-03-07T22:34:42.943Z,61.27
2018-03-07T22:37:09.033Z,59.77
2018-03-07T22:39:35.128Z,60.60
2018-03-07T22:42:01.415Z,61.33
2018-03-07T22:44:27.489Z,58.97
2018-03-07T22:46:53.573Z,58.80
2018-03-07T22:49:19.663Z,60.27
2018-03-07T22:51:45.744Z,57.90
2018-03-07T22:54:11.831Z,59.07
2018-03-07T22:56:37.906Z,56.67
2018-03-07T22:59:03.950Z,57.50
2018-03-07T23:01:30.018Z,59.03
2018-03-07T23:03:56.117Z,58.20
2018-03-07T23:06:22.272Z,56.50
2018-03-07T23:08:48.316Z,58.00
2018-03-07T23:11:14.408Z,60.77
2018-03-07T23:13:40.477Z,55.30
2018-03-07T23:16:06.553Z,55.70
2018-03-07T23:18:32.620Z,57.10
2018-03-07T23:20:58.831Z,61.50
2018-03-07T23:23:24.895Z,53.13
2018-03-07T23:25:50.940Z,56.10
2018-03-07T23:28:17.531Z,58.10
2018-03-07T23:30:43.592Z,59.10
2018-03-07T23:33:09.654Z,55.87
2018-03-07T23:35:35.726Z,65.90
2018-03-07T23:38:01.903Z,55.93
2018-03-07T23:40:27.967Z,56.07
2018-03-07T23:42:54.056Z,56.93
2018-03-07T23:45:20.131Z,56.27
2018-03-07T23:47:46.177Z,55.60
2018-03-07T23:50:12.444Z,56.67
2018-03-07T23:52:38.466Z,56.33
2018-03-07T23:55:04.524Z,56.87
2018-03-07T23:57:30.580Z,58.77
2018-03-07T23:59:56.641Z,54.77
